Flight Track Log - Related Links

Times and Time Zones

All times are in EDT time to prevent confusion due to time zone crossing. See the SWA1787 flight status page for this flight to view local times or setup timezone preferences in your user account.

Time Position Orientation Groundspeed Altitude Reporting Facility
EDT Latitude Longitude Course Direction KTS MPH feet Rate Location/Type
Sat 04:36:05 PM 41.7061 -71.4419 161° South 144 166 1,100  Level Boston Center
Sat 04:36:40 PM 41.6831 -71.4311 161° South 214 246 1,900 1,832 Climbing Boston Center
Sat 04:37:40 PM 41.6308 -71.4014 157° South 246 283 4,000 2,000 Climbing Boston Center
Sat 04:38:40 PM 41.5556 -71.3775 167° South 246 283 5,900 2,600 Climbing Boston Center
Sat 04:39:40 PM 41.4906 -71.3536 165° South 264 304 9,200 3,350 Climbing Boston Center
Sat 04:40:40 PM 41.4111 -71.3275 166° South 264 304 12,600 3,000 Climbing Boston Center
Sat 04:41:40 PM 41.3403 -71.3039 166° South 284 327 15,200 2,900 Climbing Boston Center
Sat 04:42:40 PM 41.2503 -71.2750 166° South 296 341 18,400 2,550 Climbing Boston Center
Sat 04:43:40 PM 41.1775 -71.2847 186° South 283 326 20,300 2,100 Climbing Boston Center
Sat 04:44:40 PM 41.1219 -71.3656 228° Southwest 263 303 22,600 2,100 Climbing Boston Center
Sat 04:45:40 PM 41.0644 -71.4489 228° Southwest 285 328 24,500 1,950 Climbing Boston Center
Sat 04:46:40 PM 41.0067 -71.5408 230° Southwest 306 352 26,500 1,450 Climbing Boston Center
Sat 04:47:40 PM 40.9469 -71.6350 230° Southwest 330 380 27,400 650 Climbing Boston Center
Sat 04:48:40 PM 40.8747 -71.7428 228° Southwest 364 419 27,800 600 Climbing Boston Center
Sat 04:49:40 PM 40.7964 -71.8589 228° Southwest 406 467 28,600 1,300 Climbing Boston Center
Sat 04:50:40 PM 40.7011 -71.9831 225° Southwest 428 493 30,400 1,750 Climbing Boston Center
Sat 04:51:40 PM 40.6203 -72.1067 229° Southwest 434 499 32,100 1,650 Climbing Boston Center
Sat 04:52:40 PM 40.5414 -72.2244 229° Southwest 439 505 33,700 1,550 Climbing Boston Center
Sat 04:53:40 PM 40.4622 -72.3392 228° Southwest 439 505 35,200 1,350 Climbing Boston Center
Sat 04:54:40 PM 40.3894 -72.4592 231° Southwest 434 499 36,400 1,150 Climbing Boston Center
Sat 04:55:40 PM 40.3081 -72.5733 227° Southwest 433 498 37,500 750 Climbing Boston Center
Sat 04:56:40 PM 40.2308 -72.6903 229° Southwest 433 498 37,900 200 Climbing Boston Center
Sat 04:57:40 PM 40.1514 -72.8067 228° Southwest 433 498 37,900  Level Boston Center
Sat 04:59:14 PM 40.0411 -72.9711 229° Southwest 428 493 37,900  Level Washington Center
Sat 05:00:12 PM 39.9622 -73.0875 229° Southwest 422 486 37,900  Level Washington Center
Sat 05:01:14 PM 39.8833 -73.2014 228° Southwest 422 486 37,900  Level Washington Center
Sat 05:02:14 PM 39.8064 -73.3092 227° Southwest 422 486 37,900  Level Washington Center
Sat 05:03:12 PM 39.7211 -73.4306 228° Southwest 422 486 37,900  Level Washington Center
Sat 05:04:12 PM 39.6375 -73.5383 225° Southwest 422 486 37,900  Level Washington Center
Sat 05:05:14 PM 39.5411 -73.6244 215° Southwest 422 486 37,900  Level Washington Center
Sat 05:06:14 PM 39.4444 -73.7131 215° Southwest 427 491 37,900  Level Washington Center
Sat 05:07:13 PM 39.3458 -73.7989 214° Southwest 432 497 37,900  Level Washington Center
Sat 05:08:14 PM 39.2594 -73.8761 215° Southwest 432 497 37,900  Level Washington Center
Sat 05:09:14 PM 39.1564 -73.9642 214° Southwest 432 497 37,900  Level Washington Center
Sat 05:10:12 PM 39.0575 -74.0547 215° Southwest 437 503 37,900  Level Washington Center
Sat 05:11:13 PM 38.9586 -74.1394 214° Southwest 437 503 37,900  Level Washington Center
Sat 05:12:14 PM 38.8575 -74.2294 215° Southwest 437 503 37,900  Level Washington Center
Sat 05:13:12 PM 38.7583 -74.3164 214° Southwest 437 503 37,900  Level Washington Center
Sat 05:14:12 PM 38.6572 -74.4058 215° Southwest 437 503 37,900  Level Washington Center
Sat 05:15:14 PM 38.5558 -74.4925 214° Southwest 437 503 37,900  Level Washington Center
Sat 05:16:14 PM 38.4544 -74.5764 213° Southwest 442 509 37,900  Level Washington Center
Sat 05:17:12 PM 38.3531 -74.6650 214° Southwest 442 509 37,900  Level Washington Center
Sat 05:18:14 PM 38.2536 -74.7536 215° Southwest 442 509 37,900  Level Washington Center
Sat 05:19:12 PM 38.1497 -74.8392 213° Southwest 447 514 37,900  Level Washington Center
Sat 05:20:14 PM 38.0481 -74.9272 214° Southwest 447 514 37,900  Level Washington Center
Sat 05:21:12 PM 37.9464 -75.0150 214° Southwest 447 514 37,900  Level Washington Center
Sat 05:22:13 PM 37.8425 -75.1000 213° Southwest 447 514 37,900  Level Washington Center
Sat 05:23:14 PM 37.7428 -75.1875 215° Southwest 447 514 37,900  Level Washington Center
Sat 05:24:14 PM 37.6389 -75.2719 213° Southwest 447 514 37,900  Level Washington Center
Sat 05:25:12 PM 37.5347 -75.3586 213° Southwest 447 514 37,900  Level Washington Center
Sat 05:26:12 PM 37.4306 -75.4428 213° Southwest 452 520 37,900  Level Washington Center
Sat 05:27:13 PM 37.3264 -75.5292 213° Southwest 452 520 37,900  Level Washington Center
Sat 05:28:14 PM 37.2117 -75.6258 214° Southwest 452 520 37,900  Level Washington Center
Sat 05:29:12 PM 37.1156 -75.7014 212° Southwest 452 520 37,900  Level Washington Center
Sat 05:30:12 PM 37.0133 -75.7844 213° Southwest 452 520 37,900 50 Level Washington Center
Sat 05:31:13 PM 36.8922 -75.8803 212° Southwest 466 536 38,000 49 Climbing Washington Center
Sat 05:32:14 PM 36.7856 -75.9681 213° Southwest 466 536 38,000 -50 Level Washington Center
Sat 05:33:12 PM 36.6747 -76.0556 212° Southwest 466 536 37,900 -50 Descending Washington Center
Sat 05:34:13 PM 36.5761 -76.1403 215° Southwest 458 527 37,900  Level Washington Center
Sat 05:35:14 PM 36.4694 -76.2247 212° Southwest 453 521 37,900  Level Washington Center
Sat 05:36:12 PM 36.3647 -76.3092 213° Southwest 458 527 37,900  Level Washington Center
Sat 05:37:13 PM 36.2578 -76.3956 213° Southwest 458 527 37,900  Level Washington Center
Sat 05:38:14 PM 36.1506 -76.4769 212° Southwest 458 527 37,900  Level Washington Center
Sat 05:39:12 PM 36.0436 -76.5656 214° Southwest 464 534 37,900  Level Washington Center
Sat 05:40:13 PM 35.9344 -76.6489 212° Southwest 464 534 37,900  Level Washington Center
Sat 05:41:13 PM 35.8272 -76.7347 213° Southwest 464 534 37,900  Level Washington Center
Sat 05:42:14 PM 35.7178 -76.8200 212° Southwest 464 534 37,900 50 Level Washington Center
Sat 05:43:12 PM 35.6147 -76.9053 214° Southwest 464 534 38,000 50 Climbing Washington Center
Sat 05:44:13 PM 35.5031 -76.9903 212° Southwest 459 528 38,000 -50 Level Washington Center
Sat 05:45:13 PM 35.3936 -77.0725 211° Southwest 466 536 37,900  Descending Washington Center
Sat 05:46:14 PM 35.2861 -77.1569 213° Southwest 466 536 38,000 50 Climbing Washington Center
Sat 05:47:12 PM 35.1706 -77.2208 204° Southwest 455 524 38,000  Level Washington Center
Sat 05:48:13 PM 35.0511 -77.2667 197° South 449 517 38,000  Level Washington Center
Sat 05:49:12 PM 34.9294 -77.3147 198° South 461 531 38,000 -50 Level Washington Center
Sat 05:50:13 PM 34.8097 -77.3628 198° South 467 537 37,900 -50 Descending Washington Center
Sat 05:51:13 PM 34.6881 -77.4106 198° South 467 537 37,900  Level Washington Center
Sat 05:52:12 PM 34.5642 -77.4583 198° South 467 537 37,900  Level Washington Center
Sat 05:53:12 PM 34.4422 -77.5083 199° South 467 537 37,900  Level Washington Center
Sat 05:54:13 PM 34.3206 -77.5533 197° South 467 537 37,900  Level Washington Center
Sat 05:55:13 PM 34.2008 -77.6008 198° South 467 537 37,900  Level Washington Center
Sat 05:55:55 PM 34.1228 -77.6250 194° South 466 536 37,900 59 Level Jacksonville Center
Sat 05:56:55 PM 33.9997 -77.6775 199° South 467 537 38,000 50 Climbing Jacksonville Center
Sat 05:57:55 PM 33.8806 -77.7197 196° South 467 537 38,000  Level Jacksonville Center
Sat 05:58:55 PM 33.7575 -77.7694 199° South 462 532 38,000 -50 Level Jacksonville Center
Sat 05:59:55 PM 33.6342 -77.8139 197° South 462 532 37,900 -50 Descending Jacksonville Center
Sat 06:00:55 PM 33.5128 -77.8608 198° South 462 532 37,900  Level Jacksonville Center
Sat 06:01:55 PM 33.3894 -77.9075 198° South 457 526 37,900  Level Jacksonville Center
Sat 06:02:55 PM 33.2722 -77.9514 197° South 452 520 37,900  Level Jacksonville Center
Sat 06:03:55 PM 33.1531 -77.9978 198° South 457 526 37,900  Level Jacksonville Center
Sat 06:04:55 PM 33.0336 -78.0414 197° South 457 526 37,900  Level Jacksonville Center
Sat 06:05:55 PM 32.9142 -78.0850 197° South 457 526 37,900  Level Jacksonville Center
Sat 06:06:55 PM 32.7931 -78.1333 199° South 457 526 37,900  Level Jacksonville Center
Sat 06:07:55 PM 32.6756 -78.1742 196° South 457 526 37,900  Level Jacksonville Center
Sat 06:08:55 PM 32.5539 -78.2100 194° South 452 520 37,900  Level Jacksonville Center
Sat 06:09:55 PM 32.4294 -78.2336 189° South 452 520 37,900  Level Jacksonville Center
Sat 06:10:55 PM 32.2903 -78.2556 188° South 452 520 37,900  Level Jacksonville Center
Sat 06:11:55 PM 32.1678 -78.2739 187° South 452 520 37,900  Level Jacksonville Center
Sat 06:12:55 PM 32.0433 -78.2925 187° South 458 527 37,900  Level Jacksonville Center
Sat 06:13:55 PM 31.9189 -78.3108 187° South 458 527 37,900  Level Jacksonville Center
Sat 06:14:55 PM 31.7900 -78.3294 187° South 464 534 37,900  Level Jacksonville Center
Sat 06:15:55 PM 31.6694 -78.3453 186° South 456 525 37,900  Level Jacksonville Center
Sat 06:16:55 PM 31.5428 -78.3636 187° South 461 531 37,900  Level Jacksonville Center
Sat 06:17:55 PM 31.4161 -78.3819 187° South 460 529 37,900  Level Jacksonville Center
Sat 06:18:55 PM 31.2917 -78.4000 187° South 447 514 37,900  Level Jacksonville Center
Sat 06:19:55 PM 31.1650 -78.4183 187° South 458 527 37,900  Level Jacksonville Center
Sat 06:20:55 PM 31.0361 -78.4389 188° South 469 540 37,900  Level Jacksonville Center
Sat 06:21:55 PM 30.9239 -78.4517 186° South 470 541 37,900  Level Jacksonville Center
Sat 06:22:55 PM 30.7972 -78.4697 187° South 460 529 37,900  Level Jacksonville Center
Sat 06:23:55 PM 30.6706 -78.4875 187° South 460 529 37,900  Level Jacksonville Center
Sat 06:24:55 PM 30.5417 -78.5056 187° South 465 535 37,900  Level Jacksonville Center
Sat 06:28:05 PM 30.1608 -78.6408 197° South 470 541 37,900  Level Miami Center
Sat 06:29:05 PM 30.0536 -78.7206 213° Southwest 455 524 37,900 50 Level Miami Center
Sat 06:30:05 PM 29.9439 -78.8192 218° Southwest 455 524 38,000 50 Climbing Miami Center
Sat 06:31:05 PM 29.8425 -78.9011 215° Southwest 455 524 38,000  Level Miami Center
Sat 06:32:05 PM 29.7514 -79.0019 224° Southwest 455 524 38,000 -450 Level Miami Center
Sat 06:33:05 PM 29.6519 -79.0908 218° Southwest 455 524 37,100 -818 Descending Miami Center
Sat 06:34:17 PM 29.5525 -79.1817 218° Southwest 460 529 36,200 -1,182 Descending Miami Center
Sat 06:35:17 PM 29.4319 -79.2817 216° Southwest 455 524 34,500 -2,150 Descending Miami Center
Sat 06:36:17 PM 29.3242 -79.3625 213° Southwest 460 529 31,900 -2,550 Descending Miami Center
Sat 06:37:17 PM 29.2244 -79.4553 219° Southwest 465 535 29,400 -2,100 Descending Miami Center
Sat 06:38:17 PM 29.1269 -79.5458 219° Southwest 464 534 27,700 -1,400 Descending Miami Center
Sat 06:39:17 PM 29.0661 -79.6606 239° Southwest 438 504 26,600 -1,050 Descending Miami Center
Sat 06:40:17 PM 29.0303 -79.7878 252° West 421 484 25,600 -1,000 Descending Miami Center
Sat 06:41:17 PM 28.9922 -79.9078 250° West 416 479 24,600 -1,000 Descending Miami Center
Sat 06:42:17 PM 28.9542 -80.0325 251° West 416 479 23,600 -800 Descending Miami Center
Sat 06:43:17 PM 28.9181 -80.1525 251° West 410 472 23,000 -300 Descending Miami Center
Sat 06:44:17 PM 28.8819 -80.2675 250° West 398 458 23,000 -1,152 Level Miami Center
Sat 06:46:35 PM 28.8000 -80.5333 251° West 375 432 19,200 -1,455 Descending Orlando TRACON
Sat 06:47:35 PM 28.7667 -80.6500 252° West 370 426 18,200 -950 Descending Orlando TRACON
Sat 06:48:35 PM 28.7333 -80.7500 249° West 362 417 17,300 -947 Descending Orlando TRACON
Sat 06:49:29 PM 28.7000 -80.8500 249° West 356 410 16,400 -645 Descending Orlando TRACON
Sat 06:50:36 PM 28.6667 -80.9667 252° West 352 405 16,000 -189 Descending Orlando TRACON
Sat 06:51:36 PM 28.6333 -81.0667 249° West 347 399 16,000  Level Orlando TRACON
Sat 06:52:36 PM 28.6000 -81.1667 249° West 349 402 16,000 -50 Level Orlando TRACON
Sat 06:53:36 PM 28.5667 -81.2667 249° West 348 400 15,900 -526 Descending Orlando TRACON
Sat 06:54:30 PM 28.5333 -81.3667 249° West 348 400 15,000 -1,000 Descending Orlando TRACON
Sat 06:55:30 PM 28.5167 -81.4667 259° West 343 395 14,000 -1,011 Descending Orlando TRACON
Sat 06:57:28 PM 28.4833 -81.6667 259° West 335 386 12,000 -698 Descending Tampa TRACON
Sat 06:58:22 PM 28.4667 -81.7500 257° West 300 345 12,000 -53 Level Tampa TRACON
Sat 06:59:22 PM 28.4500 -81.8500 259° West 294 338 11,900 -476 Descending Tampa TRACON
Sat 07:00:28 PM 28.4167 -81.9333 246° West 286 329 11,000 -524 Descending Tampa TRACON
Sat 07:01:28 PM 28.3833 -82.0167 246° West 278 320 10,800 -947 Descending Tampa TRACON
Sat 07:02:22 PM 28.3667 -82.1000 257° West 278 320 9,200 -1,684 Descending Tampa TRACON
Sat 07:03:22 PM 28.3500 -82.1833 257° West 279 321 7,600 -1,200 Descending Tampa TRACON
Sat 07:04:22 PM 28.3167 -82.2667 246° West 278 320 6,800 -1,200 Descending Tampa TRACON
Sat 07:05:22 PM 28.2833 -82.3333 240° Southwest 275 316 5,200 -1,286 Descending Tampa TRACON
Sat 07:06:28 PM 28.2333 -82.4000 230° Southwest 250 288 4,100 -1,000 Descending Tampa TRACON
Sat 07:07:34 PM 28.1833 -82.4667 230° Southwest 247 284 3,000 -700 Descending Tampa TRACON
Sat 07:08:28 PM 28.1333 -82.5000 210° Southwest 206 237 2,700 -579 Descending Tampa TRACON
Sat 07:09:28 PM 28.0833 -82.5167 196° South 170 196 1,900 -750 Descending Tampa TRACON
Sat 07:10:28 PM 28.0500 -82.5333 204° Southwest 135 155 1,200 -700 Descending Tampa TRACON

Login

Don't have an account? Register now (free) for customized features, flight alerts, and more!